Carnival Victory — 3FFL8 — position and weather

sailwx.info

Track history (hours):
 
Tides and Currents Weather Stations Pressure Air Temp Water Temp Dewpoint Dewpoint Depression Visibility Wind Speed Wind Dir Waves Ship Positions

Carnival Victory

Operator: Carnival Cruise Lines

Last reported at 2015-May-24 02:33 UTC. Time now 2015-May-24 03:16 UTC.
Position N 20°32' W 086°59'.

Type: Ship. MMSI: 355263000.

Date/timePositionNaut miles runAvg speedWind from/ knotsBaromVisibWave heightAir tempDewpointWater temp
2015-May-24 02:33N 20°32' W 086°59'4 3.4
2015-May-24 01:31N 20°29' W 086°59'0 0.0
2015-May-24 00:22N 20°29' W 086°59'0 0.0
2015-May-23 23:25N 20°29' W 086°59'0 0.0
2015-May-23 22:28N 20°29' W 086°59'0 0.0
2015-May-23 21:31N 20°29' W 086°59'0 0.0
2015-May-23 20:31N 20°29' W 086°59'0 0.0
2015-May-23 19:31N 20°29' W 086°59'0 0.0
2015-May-23 18:22N 20°29' W 086°59'0 0.0
2015-May-23 17:25N 20°29' W 086°59'0 0.1
2015-May-23 16:33N 20°29' W 086°59'41112.1
2015-May-22 06:30N 24°30' W 080°59'5313.5
2015-May-22 02:33N 24°55' W 080°07'1915.1
2015-May-22 01:20N 25°14' W 080°02'1114.4
2015-May-22 00:33N 25°25' W 080°01'1312.6
2015-May-21 23:33N 25°37' W 080°00'1010.1
2015-May-21 22:33N 25°45' W 080°07'3 3.3
2015-May-21 21:33N 25°47' W 080°10'0 0.0
2015-May-21 20:33N 25°47' W 080°10'0 0.0
2015-May-21 19:33N 25°47' W 080°10'0 0.0
2015-May-21 18:33N 25°47' W 080°10'0 0.0
2015-May-21 17:33N 25°47' W 080°10'0 0.0
2015-May-21 16:24N 25°47' W 080°10'0 0.0
2015-May-21 15:27N 25°47' W 080°10'0 0.0
2015-May-21 14:27N 25°47' W 080°10'0 0.0
2015-May-21 13:27N 25°47' W 080°10'0 0.0
2015-May-21 12:30N 25°47' W 080°10'0 0.0
2015-May-21 11:30N 25°47' W 080°10'6 6.8
2015-May-21 10:33N 25°47' W 080°03'1111.0
2015-May-21 09:33N 25°52' W 079°53'1110.8
2015-May-21 08:33N 25°58' W 079°42'1111.0
2015-May-21 07:33N 26°04' W 079°32'1111.3
2015-May-21 06:33N 26°10' W 079°22'1212.6
2015-May-21 05:33N 26°17' W 079°10'3617.1
2015-May-21 03:29N 26°08' W 078°31'1916.7
2015-May-21 02:22N 26°03' W 078°11'  
2015-May-18 04:00N 22°36' W 072°18'43715.9 080 / 241018.010.8 1.526.023.028.2
2015-May-17 00:33N 26°15' W 079°14'1716.9
2015-May-16 23:33N 26°08' W 079°31'1918.7
2015-May-16 22:33N 25°56' W 079°47'1817.7
2015-May-16 21:33N 25°46' W 080°04'6 6.0
2015-May-16 20:33N 25°47' W 080°10'0 0.0
2015-May-16 19:33N 25°47' W 080°10'0 0.0
2015-May-16 18:30N 25°47' W 080°10'0 0.0
2015-May-16 17:30N 25°47' W 080°10'0 0.0
2015-May-16 16:30N 25°47' W 080°10'0 0.0
2015-May-16 15:30N 25°47' W 080°10'0 0.0
2015-May-16 14:33N 25°47' W 080°10'0 0.0
2015-May-16 13:30N 25°47' W 080°10'0 0.0
2015-May-16 12:18N 25°47' W 080°10'1 0.9
2015-May-16 11:33N 25°47' W 080°11'8 7.6
2015-May-16 10:33N 25°46' W 080°03'1414.2
2015-May-16 09:33N 25°33' W 079°56'45015.2
2015-May-15 04:00N 19°24' W 075°18'   020 / 261015.010.8 2.026.023.029.7
Track history (hours):
 
Tides and Currents Weather Stations Pressure Air Temp Water Temp Dewpoint Dewpoint Depression Visibility Wind Speed Wind Dir Waves Ship Positions

Carnival Victory

Operator: Carnival Cruise Lines

Last reported at 2015-May-24 02:33 UTC. Time now 2015-May-24 03:16 UTC.
Position N 20°32' W 086°59'.

Type: Ship. MMSI: 355263000.

Date/timePositionNaut miles runAvg speedWind from/ knotsBaromVisibWave heightAir tempDewpointWater temp
2015-May-24 02:33N 20°32' W 086°59'4 3.4
2015-May-24 01:31N 20°29' W 086°59'0 0.0
2015-May-24 00:22N 20°29' W 086°59'0 0.0
2015-May-23 23:25N 20°29' W 086°59'0 0.0
2015-May-23 22:28N 20°29' W 086°59'0 0.0
2015-May-23 21:31N 20°29' W 086°59'0 0.0
2015-May-23 20:31N 20°29' W 086°59'0 0.0
2015-May-23 19:31N 20°29' W 086°59'0 0.0
2015-May-23 18:22N 20°29' W 086°59'0 0.0
2015-May-23 17:25N 20°29' W 086°59'0 0.1
2015-May-23 16:33N 20°29' W 086°59'41112.1
2015-May-22 06:30N 24°30' W 080°59'5313.5
2015-May-22 02:33N 24°55' W 080°07'1915.1
2015-May-22 01:20N 25°14' W 080°02'1114.4
2015-May-22 00:33N 25°25' W 080°01'1312.6
2015-May-21 23:33N 25°37' W 080°00'1010.1
2015-May-21 22:33N 25°45' W 080°07'3 3.3
2015-May-21 21:33N 25°47' W 080°10'0 0.0
2015-May-21 20:33N 25°47' W 080°10'0 0.0
2015-May-21 19:33N 25°47' W 080°10'0 0.0
2015-May-21 18:33N 25°47' W 080°10'0 0.0
2015-May-21 17:33N 25°47' W 080°10'0 0.0
2015-May-21 16:24N 25°47' W 080°10'0 0.0
2015-May-21 15:27N 25°47' W 080°10'0 0.0
2015-May-21 14:27N 25°47' W 080°10'0 0.0
2015-May-21 13:27N 25°47' W 080°10'0 0.0
2015-May-21 12:30N 25°47' W 080°10'0 0.0
2015-May-21 11:30N 25°47' W 080°10'6 6.8
2015-May-21 10:33N 25°47' W 080°03'1111.0
2015-May-21 09:33N 25°52' W 079°53'1110.8
2015-May-21 08:33N 25°58' W 079°42'1111.0
2015-May-21 07:33N 26°04' W 079°32'1111.3
2015-May-21 06:33N 26°10' W 079°22'1212.6
2015-May-21 05:33N 26°17' W 079°10'3617.1
2015-May-21 03:29N 26°08' W 078°31'1916.7
2015-May-21 02:22N 26°03' W 078°11'  
2015-May-18 04:00N 22°36' W 072°18'43715.9 080 / 241018.010.8 1.526.023.028.2
2015-May-17 00:33N 26°15' W 079°14'1716.9
2015-May-16 23:33N 26°08' W 079°31'1918.7
2015-May-16 22:33N 25°56' W 079°47'1817.7
2015-May-16 21:33N 25°46' W 080°04'6 6.0
2015-May-16 20:33N 25°47' W 080°10'0 0.0
2015-May-16 19:33N 25°47' W 080°10'0 0.0
2015-May-16 18:30N 25°47' W 080°10'0 0.0
2015-May-16 17:30N 25°47' W 080°10'0 0.0
2015-May-16 16:30N 25°47' W 080°10'0 0.0
2015-May-16 15:30N 25°47' W 080°10'0 0.0
2015-May-16 14:33N 25°47' W 080°10'0 0.0
2015-May-16 13:30N 25°47' W 080°10'0 0.0
2015-May-16 12:18N 25°47' W 080°10'1 0.9
2015-May-16 11:33N 25°47' W 080°11'8 7.6
2015-May-16 10:33N 25°46' W 080°03'1414.2
2015-May-16 09:33N 25°33' W 079°56'45015.2
2015-May-15 04:00N 19°24' W 075°18'   020 / 261015.010.8 2.026.023.029.7

Dump ship's entire track history